createdAt,value
2018-02-23T00:00:42.169Z,27.8
2018-02-23T00:01:42.901Z,27.6
2018-02-23T00:02:43.694Z,25.7
2018-02-23T00:03:44.424Z,26.6
2018-02-23T00:04:45.207Z,26.4
2018-02-23T00:05:45.938Z,27.7
2018-02-23T00:06:46.664Z,27.4
2018-02-23T00:07:47.385Z,27.7
2018-02-23T00:08:48.106Z,27.1
2018-02-23T00:09:48.837Z,29.4
2018-02-23T00:10:49.645Z,30.1
2018-02-23T00:11:50.377Z,28.6
2018-02-23T00:12:51.103Z,28.3
2018-02-23T00:13:51.837Z,28.6
2018-02-23T00:14:52.566Z,27.7
2018-02-23T00:15:53.334Z,28.4
2018-02-23T00:16:54.068Z,28.9
2018-02-23T00:17:54.815Z,29.3
2018-02-23T00:18:55.540Z,31.0
2018-02-23T00:19:56.334Z,30.0
2018-02-23T00:20:57.105Z,30.6
2018-02-23T00:21:57.828Z,29.9
2018-02-23T00:22:58.635Z,30.6
2018-02-23T00:23:59.364Z,30.7
2018-02-23T00:25:00.079Z,29.9
2018-02-23T00:26:00.800Z,30.1
2018-02-23T00:27:01.569Z,30.3
2018-02-23T00:28:02.291Z,30.8
2018-02-23T00:29:03.024Z,30.3
2018-02-23T00:30:03.798Z,31.4
2018-02-23T00:31:04.515Z,30.5
2018-02-23T00:32:05.236Z,29.8
2018-02-23T00:33:05.964Z,31.0
2018-02-23T00:34:06.743Z,29.8
2018-02-23T00:35:07.506Z,30.4
2018-02-23T00:36:08.221Z,30.9
2018-02-23T00:37:08.951Z,30.5
2018-02-23T00:38:09.695Z,30.9
2018-02-23T00:39:10.500Z,30.7
2018-02-23T00:40:11.267Z,32.3
2018-02-23T00:41:11.974Z,31.2
2018-02-23T00:42:12.773Z,30.9
2018-02-23T00:43:13.493Z,30.3
2018-02-23T00:44:14.259Z,30.1
2018-02-23T00:45:15.005Z,30.9
2018-02-23T00:46:15.736Z,29.9
2018-02-23T00:47:16.471Z,30.4
2018-02-23T00:48:17.193Z,30.8
2018-02-23T00:49:17.919Z,32.1
2018-02-23T00:50:18.745Z,30.0
2018-02-23T00:51:19.477Z,30.0
2018-02-23T00:52:20.195Z,30.1
2018-02-23T00:53:20.932Z,29.6
2018-02-23T00:54:21.672Z,32.4
2018-02-23T00:55:22.472Z,31.1
2018-02-23T00:56:23.255Z,32.3
2018-02-23T00:57:24.042Z,30.5
2018-02-23T00:58:24.782Z,31.0
2018-02-23T00:59:25.555Z,31.1
2018-02-23T01:00:26.280Z,32.1
2018-02-23T01:01:27.067Z,32.4
2018-02-23T01:02:27.789Z,31.5
2018-02-23T01:03:28.511Z,31.2
2018-02-23T01:04:29.247Z,31.3
2018-02-23T01:05:29.974Z,31.0
2018-02-23T01:06:30.689Z,31.4
2018-02-23T01:07:31.415Z,31.8
2018-02-23T01:08:32.152Z,32.1
2018-02-23T01:09:32.886Z,31.4
2018-02-23T01:10:33.606Z,32.3
2018-02-23T01:11:34.324Z,31.4
2018-02-23T01:12:35.118Z,31.1
2018-02-23T01:13:35.815Z,30.9
2018-02-23T01:14:36.510Z,32.7
2018-02-23T01:15:37.228Z,30.7
2018-02-23T01:16:37.944Z,31.4
2018-02-23T01:17:38.705Z,32.3
2018-02-23T01:18:39.486Z,31.6
2018-02-23T01:19:40.285Z,32.1
2018-02-23T01:20:41.005Z,31.1
2018-02-23T01:21:41.723Z,31.8
2018-02-23T01:22:42.426Z,30.5
2018-02-23T01:23:43.149Z,30.8
2018-02-23T01:24:43.945Z,32.3
2018-02-23T01:25:44.669Z,30.8
2018-02-23T01:26:45.434Z,31.7
2018-02-23T01:27:46.164Z,30.7
2018-02-23T01:28:46.886Z,30.8
2018-02-23T01:29:47.606Z,29.4
2018-02-23T01:30:48.328Z,30.9
2018-02-23T01:31:49.049Z,30.9
2018-02-23T01:32:49.780Z,29.2
2018-02-23T01:33:50.487Z,28.8
2018-02-23T01:34:51.284Z,28.9
2018-02-23T01:35:51.999Z,27.6
2018-02-23T01:36:52.732Z,28.3
2018-02-23T01:37:53.450Z,28.2
2018-02-23T01:38:54.241Z,28.0
2018-02-23T01:39:54.967Z,26.6
2018-02-23T01:40:55.695Z,26.6
2018-02-23T01:41:56.455Z,26.9
2018-02-23T01:42:57.180Z,25.5
2018-02-23T01:43:57.971Z,26.4
2018-02-23T01:44:58.697Z,26.9
2018-02-23T01:45:59.425Z,26.4
2018-02-23T01:47:00.138Z,25.7
2018-02-23T01:48:00.863Z,26.9
2018-02-23T01:49:01.641Z,26.0
2018-02-23T01:50:02.458Z,25.6
2018-02-23T01:51:03.190Z,25.0
2018-02-23T01:52:03.986Z,25.4
2018-02-23T01:53:04.733Z,24.7
2018-02-23T01:54:05.467Z,26.3
2018-02-23T01:55:06.147Z,24.5
2018-02-23T01:56:06.871Z,26.5
2018-02-23T01:57:07.635Z,25.8
2018-02-23T01:58:08.415Z,26.2
2018-02-23T01:59:09.144Z,25.4
2018-02-23T02:00:09.859Z,26.1
2018-02-23T02:01:10.584Z,26.0
2018-02-23T02:02:11.304Z,25.5
2018-02-23T02:03:12.051Z,25.2
2018-02-23T02:04:12.825Z,25.6
2018-02-23T02:05:13.540Z,24.8
2018-02-23T02:06:14.269Z,25.4
2018-02-23T02:07:15.090Z,25.8
2018-02-23T02:08:15.812Z,25.3
2018-02-23T02:09:16.605Z,26.9
2018-02-23T02:10:17.321Z,25.2
2018-02-23T02:11:18.052Z,25.0
2018-02-23T02:12:18.766Z,25.1
2018-02-23T02:13:19.487Z,27.6
2018-02-23T02:14:20.251Z,25.7
2018-02-23T02:15:20.963Z,27.2
2018-02-23T02:16:21.698Z,27.6
2018-02-23T02:17:22.426Z,27.0
2018-02-23T02:18:23.143Z,28.3
2018-02-23T02:19:23.873Z,29.5
2018-02-23T02:20:24.598Z,29.0
2018-02-23T02:21:25.322Z,28.4
2018-02-23T02:22:26.042Z,28.3
2018-02-23T02:23:26.755Z,31.6
2018-02-23T02:24:27.469Z,32.4
2018-02-23T02:25:28.313Z,30.2
2018-02-23T02:26:29.035Z,31.6
2018-02-23T02:27:29.763Z,31.1
2018-02-23T02:28:30.484Z,30.5
2018-02-23T02:29:31.217Z,30.4
2018-02-23T02:30:31.930Z,30.0
2018-02-23T02:31:32.709Z,30.8
2018-02-23T02:32:33.433Z,29.8
2018-02-23T02:33:34.167Z,30.6
2018-02-23T02:34:34.896Z,29.4
2018-02-23T02:35:35.604Z,29.9
2018-02-23T02:36:36.364Z,27.6
2018-02-23T02:37:37.086Z,27.5
2018-02-23T02:38:37.801Z,27.9
2018-02-23T02:39:38.527Z,28.0
2018-02-23T02:40:39.255Z,27.6
2018-02-23T02:41:39.979Z,29.1
2018-02-23T02:42:40.772Z,27.8
2018-02-23T02:43:41.557Z,28.6
2018-02-23T02:44:42.257Z,29.5
2018-02-23T02:45:43.059Z,27.5
2018-02-23T02:46:43.812Z,27.9
2018-02-23T02:47:44.551Z,30.4
2018-02-23T02:48:45.349Z,30.4
2018-02-23T02:49:46.126Z,29.7
2018-02-23T02:50:46.840Z,31.2
2018-02-23T02:51:47.628Z,29.9
2018-02-23T02:52:48.336Z,29.5
2018-02-23T02:53:49.046Z,29.0
2018-02-23T02:54:49.764Z,28.6
2018-02-23T02:55:50.485Z,28.6
2018-02-23T02:56:51.226Z,29.6
2018-02-23T02:57:52.007Z,28.8
2018-02-23T02:58:52.801Z,30.6
2018-02-23T02:59:53.589Z,30.9
2018-02-23T03:00:54.319Z,30.8
2018-02-23T03:01:55.103Z,30.8
2018-02-23T03:02:55.817Z,32.8
2018-02-23T03:03:56.602Z,30.7
2018-02-23T03:04:57.324Z,30.4
2018-02-23T03:05:58.045Z,31.5
2018-02-23T03:06:58.829Z,30.3
2018-02-23T03:07:59.624Z,30.9
2018-02-23T03:09:00.334Z,31.6
2018-02-23T03:10:01.057Z,32.6
2018-02-23T03:11:01.779Z,32.6
2018-02-23T03:12:02.485Z,32.3
2018-02-23T03:13:03.265Z,32.4
2018-02-23T03:14:03.987Z,32.2
2018-02-23T03:15:04.767Z,31.8
2018-02-23T03:16:05.487Z,32.8
2018-02-23T03:17:06.213Z,32.0
2018-02-23T03:18:06.987Z,32.3
2018-02-23T03:19:07.807Z,32.1
2018-02-23T03:20:08.522Z,31.8
2018-02-23T03:21:09.296Z,32.0
2018-02-23T03:22:10.020Z,31.8
2018-02-23T03:23:10.738Z,29.6
2018-02-23T03:24:11.450Z,30.6
2018-02-23T03:25:12.173Z,30.0
2018-02-23T03:26:12.923Z,29.2
2018-02-23T03:27:13.708Z,28.4
2018-02-23T03:28:14.491Z,29.0
2018-02-23T03:29:15.289Z,28.6
2018-02-23T03:30:16.009Z,29.1
2018-02-23T03:31:16.733Z,28.0
2018-02-23T03:32:17.520Z,28.4
2018-02-23T03:33:18.287Z,29.9
2018-02-23T03:34:18.970Z,27.8
2018-02-23T03:35:19.707Z,27.9
2018-02-23T03:36:20.475Z,27.4
2018-02-23T03:37:21.214Z,27.9
2018-02-23T03:38:21.977Z,28.1
2018-02-23T03:39:22.689Z,28.8
2018-02-23T03:40:23.405Z,27.5
2018-02-23T03:41:24.127Z,27.0
2018-02-23T03:42:24.859Z,27.0
2018-02-23T03:43:25.576Z,28.2
2018-02-23T03:44:26.299Z,26.8
2018-02-23T03:45:27.015Z,26.4
2018-02-23T03:46:27.749Z,27.2
2018-02-23T03:47:28.504Z,26.5
2018-02-23T03:48:29.241Z,27.8
2018-02-23T03:49:30.025Z,27.9
2018-02-23T03:50:30.746Z,27.7
2018-02-23T03:51:31.534Z,28.7
2018-02-23T03:52:32.309Z,26.1
2018-02-23T03:53:33.032Z,28.8
2018-02-23T03:54:33.745Z,26.1
2018-02-23T03:55:34.479Z,28.3
2018-02-23T03:56:35.200Z,28.8
2018-02-23T03:57:35.939Z,28.5
2018-02-23T03:58:36.668Z,28.4
2018-02-23T03:59:37.433Z,28.7
2018-02-23T04:00:38.234Z,29.0
2018-02-23T04:01:38.950Z,27.8
2018-02-23T04:02:39.768Z,29.1
2018-02-23T04:03:40.498Z,29.3
2018-02-23T04:04:41.216Z,28.7
2018-02-23T04:05:41.931Z,28.4
2018-02-23T04:06:42.658Z,28.9
2018-02-23T04:07:43.371Z,28.4
2018-02-23T04:08:44.085Z,28.4
2018-02-23T04:09:44.824Z,28.8
2018-02-23T04:10:45.618Z,29.3
2018-02-23T04:11:46.337Z,28.5
2018-02-23T04:12:47.139Z,26.9
2018-02-23T04:13:47.864Z,29.2
2018-02-23T04:14:48.645Z,29.5
2018-02-23T04:15:49.434Z,29.4
2018-02-23T04:16:50.146Z,29.1
2018-02-23T04:17:50.848Z,29.8
2018-02-23T04:18:51.566Z,29.0
2018-02-23T04:19:52.296Z,27.7
2018-02-23T04:20:53.132Z,29.3
2018-02-23T04:21:53.856Z,30.3
2018-02-23T04:22:54.627Z,30.5
2018-02-23T04:23:55.426Z,29.4
2018-02-23T04:24:56.148Z,27.8
2018-02-23T04:25:56.864Z,28.2
2018-02-23T04:26:57.584Z,29.2
2018-02-23T04:27:58.361Z,28.9
2018-02-23T04:28:59.097Z,29.5
2018-02-23T04:29:59.880Z,30.1
2018-02-23T04:31:00.664Z,29.9
2018-02-23T04:32:01.387Z,29.3
2018-02-23T04:33:02.187Z,28.5
2018-02-23T04:34:02.896Z,30.4
2018-02-23T04:35:03.683Z,30.7
2018-02-23T04:36:04.399Z,32.0
2018-02-23T04:37:05.119Z,29.8
2018-02-23T04:38:05.814Z,30.3
2018-02-23T04:39:06.529Z,30.0
2018-02-23T04:40:07.326Z,32.1
2018-02-23T04:41:08.136Z,31.2
2018-02-23T04:42:08.876Z,30.3
2018-02-23T04:43:09.599Z,31.1
2018-02-23T04:44:10.399Z,29.4
2018-02-23T04:45:11.186Z,30.6
2018-02-23T04:46:11.909Z,31.5
2018-02-23T04:47:12.700Z,31.8
2018-02-23T04:48:13.424Z,31.4
2018-02-23T04:49:14.198Z,30.9
2018-02-23T04:50:14.914Z,31.5
2018-02-23T04:51:15.652Z,31.2
2018-02-23T04:52:16.468Z,32.4
2018-02-23T04:53:17.155Z,34.0
2018-02-23T04:54:17.925Z,32.3
2018-02-23T04:55:18.657Z,34.0
2018-02-23T04:56:19.459Z,35.8
2018-02-23T04:57:20.197Z,32.8
2018-02-23T04:58:20.925Z,34.8
2018-02-23T04:59:21.710Z,34.9
2018-02-23T05:00:22.408Z,33.8
2018-02-23T05:01:23.114Z,32.9
2018-02-23T05:02:23.847Z,34.9
2018-02-23T05:03:24.544Z,36.5
2018-02-23T05:04:25.262Z,37.2
2018-02-23T05:05:25.964Z,36.9
2018-02-23T05:06:26.755Z,36.6
2018-02-23T05:07:27.523Z,36.5
2018-02-23T05:08:28.248Z,35.5
2018-02-23T05:09:28.967Z,37.5
2018-02-23T05:10:29.685Z,36.7
2018-02-23T05:11:30.412Z,37.2
2018-02-23T05:12:31.143Z,36.4
2018-02-23T05:13:31.868Z,37.3
2018-02-23T05:14:32.592Z,36.9
2018-02-23T05:15:33.358Z,35.7
2018-02-23T05:16:34.171Z,35.9
2018-02-23T05:17:34.898Z,34.7
2018-02-23T05:18:35.622Z,34.1
2018-02-23T05:19:36.357Z,36.3
2018-02-23T05:20:37.138Z,35.9
2018-02-23T05:21:37.905Z,34.9
2018-02-23T05:22:38.678Z,36.8
2018-02-23T05:23:39.418Z,37.0
2018-02-23T05:24:40.152Z,34.2
2018-02-23T05:25:40.967Z,35.9
2018-02-23T05:26:41.698Z,37.6
2018-02-23T05:27:42.483Z,34.9
2018-02-23T05:28:43.256Z,33.7
2018-02-23T05:29:44.045Z,34.5
2018-02-23T05:30:44.739Z,32.4
2018-02-23T05:31:45.456Z,33.9
2018-02-23T05:32:46.198Z,33.8
2018-02-23T05:33:46.972Z,34.1
2018-02-23T05:34:47.700Z,34.3
2018-02-23T05:35:48.454Z,33.5
2018-02-23T05:36:49.196Z,32.8
2018-02-23T05:37:49.996Z,31.4
2018-02-23T05:38:50.716Z,32.7
2018-02-23T05:39:51.434Z,31.5
2018-02-23T05:40:52.154Z,33.2
2018-02-23T05:41:52.939Z,32.1
2018-02-23T05:42:53.658Z,32.1
2018-02-23T05:43:54.445Z,33.3
2018-02-23T05:44:55.163Z,31.3
2018-02-23T05:45:55.876Z,30.8
2018-02-23T05:46:56.593Z,31.1
2018-02-23T05:47:57.319Z,29.9
2018-02-23T05:48:58.078Z,30.9
2018-02-23T05:49:58.869Z,29.5
2018-02-23T05:50:59.655Z,28.7
2018-02-23T05:52:00.386Z,27.3
2018-02-23T05:53:01.109Z,26.0
2018-02-23T05:54:01.832Z,29.2
2018-02-23T05:55:02.559Z,28.5
2018-02-23T05:56:03.399Z,27.2
2018-02-23T05:57:04.198Z,26.5
2018-02-23T05:58:04.928Z,26.5
2018-02-23T05:59:05.658Z,25.2
2018-02-23T06:00:06.451Z,23.9
2018-02-23T06:01:07.226Z,23.2
2018-02-23T06:02:07.958Z,24.1
2018-02-23T06:03:08.683Z,23.0
2018-02-23T06:04:09.455Z,23.2
2018-02-23T06:05:10.185Z,22.4
2018-02-23T06:06:10.907Z,21.7
2018-02-23T06:07:11.622Z,20.5
2018-02-23T06:08:12.327Z,19.3
2018-02-23T06:09:13.038Z,20.3
2018-02-23T06:10:13.765Z,19.3
2018-02-23T06:11:14.538Z,18.8
2018-02-23T06:12:15.263Z,20.4
2018-02-23T06:13:16.056Z,20.5
2018-02-23T06:14:16.794Z,19.1
2018-02-23T06:15:17.513Z,19.4
2018-02-23T06:16:18.236Z,20.4
2018-02-23T06:17:18.969Z,18.6
2018-02-23T06:18:19.686Z,18.6
2018-02-23T06:19:20.414Z,19.6
2018-02-23T06:20:21.189Z,18.2
2018-02-23T06:21:21.907Z,18.6
2018-02-23T06:22:22.633Z,17.7
2018-02-23T06:23:23.369Z,15.5
2018-02-23T06:24:24.083Z,14.9
2018-02-23T06:25:24.803Z,13.9
2018-02-23T06:26:25.530Z,12.7
2018-02-23T06:27:26.345Z,13.6
2018-02-23T06:28:27.119Z,13.8
2018-02-23T06:29:27.846Z,11.1
2018-02-23T06:30:28.585Z,12.0
2018-02-23T06:31:29.353Z,11.6
2018-02-23T06:32:30.046Z,10.8
2018-02-23T06:33:30.764Z,10.7
2018-02-23T06:34:31.489Z,10.3
2018-02-23T06:35:32.276Z,10.5
2018-02-23T06:36:32.997Z,10.1
2018-02-23T06:37:33.715Z,9.8
2018-02-23T06:38:34.424Z,9.7
2018-02-23T06:39:35.126Z,9.7
2018-02-23T06:40:36.372Z,10.1
2018-02-23T06:41:37.107Z,10.9
2018-02-23T06:42:37.826Z,8.9
2018-02-23T06:43:39.322Z,10.0
2018-02-23T06:44:40.030Z,9.9
2018-02-23T06:45:40.712Z,8.9
2018-02-23T06:46:41.449Z,9.8
2018-02-23T06:47:42.219Z,9.7
2018-02-23T06:48:42.940Z,9.3
2018-02-23T06:49:43.656Z,9.4
2018-02-23T06:50:44.387Z,8.7
2018-02-23T06:51:45.109Z,9.0
2018-02-23T06:52:45.805Z,8.8
2018-02-23T06:53:46.609Z,9.7
2018-02-23T06:54:47.401Z,10.2
2018-02-23T06:55:48.146Z,20.9
2018-02-23T06:56:48.855Z,11.4
2018-02-23T06:57:49.580Z,10.2
2018-02-23T06:58:50.320Z,8.8
2018-02-23T06:59:51.088Z,10.3
2018-02-23T07:00:51.794Z,8.8
2018-02-23T07:01:52.525Z,9.2
2018-02-23T07:02:53.255Z,9.1
2018-02-23T07:03:53.975Z,8.6
2018-02-23T07:04:54.746Z,9.3
2018-02-23T07:05:55.471Z,8.0
2018-02-23T07:06:56.228Z,8.5
2018-02-23T07:07:56.975Z,8.1
2018-02-23T07:08:57.716Z,8.2
2018-02-23T07:09:58.450Z,8.7
2018-02-23T07:10:59.218Z,8.2
2018-02-23T07:11:59.926Z,8.5
2018-02-23T07:13:00.636Z,8.1
2018-02-23T07:14:01.350Z,7.8
2018-02-23T07:15:02.062Z,8.1
2018-02-23T07:16:02.840Z,7.8
2018-02-23T07:17:03.676Z,7.4
2018-02-23T07:18:04.386Z,8.4
2018-02-23T07:19:05.119Z,8.3
2018-02-23T07:20:05.847Z,7.9
2018-02-23T07:21:06.570Z,8.3
2018-02-23T07:22:07.366Z,8.8
2018-02-23T07:23:08.159Z,8.8
2018-02-23T07:24:08.868Z,7.9
2018-02-23T07:25:09.603Z,8.6
2018-02-23T07:26:10.373Z,7.7
2018-02-23T07:27:11.096Z,8.0
2018-02-23T07:28:11.808Z,8.4
2018-02-23T07:29:12.580Z,8.2
2018-02-23T07:30:13.315Z,7.7
2018-02-23T07:31:14.086Z,8.8
2018-02-23T07:32:14.858Z,7.8
2018-02-23T07:33:16.486Z,8.1
2018-02-23T07:34:17.561Z,8.2
2018-02-23T07:35:19.286Z,7.7
2018-02-23T07:36:20.498Z,7.7
2018-02-23T07:37:21.337Z,8.5
2018-02-23T07:38:22.366Z,8.9
2018-02-23T07:39:23.491Z,7.7
2018-02-23T07:40:25.269Z,7.5
2018-02-23T07:41:27.167Z,7.4
2018-02-23T07:42:29.172Z,6.8
2018-02-23T07:43:30.227Z,7.0
2018-02-23T07:44:31.006Z,7.4
2018-02-23T07:45:31.689Z,7.2
2018-02-23T07:46:32.564Z,6.3
2018-02-23T07:47:33.371Z,6.5
2018-02-23T07:48:34.897Z,7.5
2018-02-23T07:49:35.838Z,6.2
2018-02-23T07:50:36.582Z,6.4
2018-02-23T07:51:37.317Z,6.5
2018-02-23T07:52:38.039Z,7.1
2018-02-23T07:53:38.756Z,6.5
2018-02-23T07:54:39.478Z,6.4
2018-02-23T07:55:40.224Z,6.2
2018-02-23T07:56:40.994Z,6.4
2018-02-23T07:57:41.811Z,7.0
2018-02-23T07:58:42.541Z,6.0
2018-02-23T07:59:43.270Z,6.1
2018-02-23T08:00:43.999Z,6.4
2018-02-23T08:01:44.770Z,6.4
2018-02-23T08:02:45.558Z,6.8
2018-02-23T08:03:46.280Z,6.4
2018-02-23T08:04:47.023Z,6.5
2018-02-23T08:05:47.734Z,6.3
2018-02-23T08:06:48.544Z,6.4
2018-02-23T08:07:49.277Z,7.1
2018-02-23T08:08:50.012Z,6.5
2018-02-23T08:09:50.767Z,7.2
2018-02-23T08:10:51.540Z,7.5
2018-02-23T08:11:52.350Z,6.8
2018-02-23T08:12:53.068Z,6.3
2018-02-23T08:13:53.778Z,7.2
2018-02-23T08:14:54.495Z,6.7
2018-02-23T08:15:55.268Z,6.6
2018-02-23T08:16:55.997Z,6.9
2018-02-23T08:17:56.724Z,6.3
2018-02-23T08:18:57.499Z,6.1
2018-02-23T08:19:58.310Z,6.1
2018-02-23T08:20:59.047Z,5.9
2018-02-23T08:21:59.770Z,6.4
2018-02-23T08:23:00.482Z,7.3
2018-02-23T08:24:01.197Z,6.8
2018-02-23T08:25:01.906Z,7.1
2018-02-23T08:26:02.633Z,7.7
2018-02-23T08:27:03.415Z,6.3
2018-02-23T08:28:04.186Z,6.7
2018-02-23T08:29:04.897Z,7.3
2018-02-23T08:30:05.620Z,6.6
2018-02-23T08:31:06.347Z,6.3
2018-02-23T08:32:07.066Z,6.4
2018-02-23T08:33:07.836Z,7.1
2018-02-23T08:34:08.552Z,6.9
2018-02-23T08:35:09.296Z,6.9
2018-02-23T08:36:10.032Z,7.4
2018-02-23T08:37:10.832Z,8.3
2018-02-23T08:38:11.552Z,9.1
2018-02-23T08:39:12.349Z,8.8
2018-02-23T08:40:13.068Z,8.5
2018-02-23T08:41:13.796Z,9.2
2018-02-23T08:42:14.520Z,10.3
2018-02-23T08:43:15.235Z,9.8
2018-02-23T08:44:15.976Z,9.5
2018-02-23T08:45:16.806Z,10.3
2018-02-23T08:46:17.516Z,10.5
2018-02-23T08:47:18.250Z,10.5
2018-02-23T08:48:19.308Z,10.8
2018-02-23T08:49:20.083Z,11.2
2018-02-23T08:50:20.896Z,11.1
2018-02-23T08:51:21.700Z,11.6
2018-02-23T08:52:22.426Z,12.0
2018-02-23T08:53:23.179Z,12.0
2018-02-23T08:54:25.069Z,12.5
2018-02-23T08:55:26.011Z,14.1
2018-02-23T08:56:26.783Z,13.4
2018-02-23T08:57:27.564Z,12.8
2018-02-23T08:58:28.267Z,12.9
2018-02-23T08:59:29.307Z,12.6
2018-02-23T09:00:30.217Z,12.8
2018-02-23T09:01:31.004Z,12.5
2018-02-23T09:02:31.755Z,12.9
2018-02-23T09:03:32.489Z,12.3
2018-02-23T09:04:33.195Z,13.2
2018-02-23T09:05:33.917Z,14.2
2018-02-23T09:06:34.696Z,14.0
2018-02-23T09:07:35.433Z,13.4
2018-02-23T09:08:36.170Z,11.7
2018-02-23T09:09:36.897Z,11.8
2018-02-23T09:10:37.614Z,11.4
2018-02-23T09:11:38.347Z,11.6
2018-02-23T09:12:39.151Z,11.6
2018-02-23T09:13:39.877Z,11.2
2018-02-23T09:14:40.594Z,12.1
2018-02-23T09:15:41.316Z,11.6
2018-02-23T09:16:42.057Z,12.0
2018-02-23T09:17:42.796Z,11.7
2018-02-23T09:18:43.588Z,12.9
2018-02-23T09:19:44.289Z,12.1
2018-02-23T09:20:45.017Z,12.6
2018-02-23T09:21:45.737Z,12.4
2018-02-23T09:22:46.516Z,12.3
2018-02-23T09:23:47.249Z,12.7
2018-02-23T09:24:47.975Z,12.2
2018-02-23T09:25:48.705Z,12.2
2018-02-23T09:26:49.436Z,11.6
2018-02-23T09:27:50.169Z,11.7
2018-02-23T09:28:50.900Z,12.2
2018-02-23T09:29:51.664Z,12.2
2018-02-23T09:30:52.399Z,11.6
2018-02-23T09:31:53.162Z,10.8
2018-02-23T09:32:53.921Z,11.6
2018-02-23T09:33:54.696Z,11.1
2018-02-23T09:34:55.421Z,10.5
2018-02-23T09:35:56.153Z,10.8
2018-02-23T09:36:56.955Z,10.5
2018-02-23T09:37:57.617Z,11.2
2018-02-23T09:38:58.354Z,10.6
2018-02-23T09:39:59.102Z,10.8
2018-02-23T09:40:59.877Z,10.7
2018-02-23T09:42:00.608Z,10.7
2018-02-23T09:43:01.409Z,10.6
2018-02-23T09:44:02.178Z,10.8
2018-02-23T09:45:02.923Z,10.8
2018-02-23T09:46:03.697Z,11.4
2018-02-23T09:47:04.422Z,10.8
2018-02-23T09:48:05.135Z,11.5
2018-02-23T09:49:05.858Z,11.0
2018-02-23T09:50:06.680Z,10.6
2018-02-23T09:51:07.495Z,10.0
2018-02-23T09:52:08.228Z,10.6
2018-02-23T09:53:09.035Z,10.7
2018-02-23T09:54:09.759Z,11.0
2018-02-23T09:55:10.546Z,10.8
2018-02-23T09:56:11.380Z,8.8
2018-02-23T09:57:12.107Z,9.5
2018-02-23T09:58:12.834Z,9.4
2018-02-23T09:59:13.618Z,9.2
2018-02-23T10:00:14.297Z,9.3
2018-02-23T10:01:15.087Z,9.7
2018-02-23T10:02:15.906Z,9.4
2018-02-23T10:03:16.692Z,8.7
2018-02-23T10:04:17.495Z,9.1
2018-02-23T10:05:18.234Z,8.4
2018-02-23T10:06:19.005Z,8.5
2018-02-23T10:07:19.737Z,7.7
2018-02-23T10:08:20.513Z,8.8
2018-02-23T10:09:21.250Z,8.8
2018-02-23T10:10:22.068Z,8.7
2018-02-23T10:11:22.786Z,8.6
2018-02-23T10:12:23.509Z,8.5
2018-02-23T10:13:24.252Z,8.8
2018-02-23T10:14:25.089Z,7.4
2018-02-23T10:15:25.809Z,7.8
2018-02-23T10:16:26.535Z,7.8
2018-02-23T10:17:27.268Z,7.6
2018-02-23T10:18:28.000Z,7.3
2018-02-23T10:19:28.772Z,7.2
2018-02-23T10:20:29.549Z,7.1
2018-02-23T10:21:30.294Z,7.2
2018-02-23T10:22:31.032Z,6.6
2018-02-23T10:23:31.774Z,6.6
2018-02-23T10:24:32.511Z,6.5
2018-02-23T10:25:33.276Z,6.7
2018-02-23T10:26:34.016Z,7.0
2018-02-23T10:27:34.748Z,6.8
2018-02-23T10:28:35.537Z,7.2
2018-02-23T10:29:36.325Z,6.8
2018-02-23T10:30:37.202Z,6.5
2018-02-23T10:31:37.946Z,6.0
2018-02-23T10:32:38.704Z,5.9
2018-02-23T10:33:40.478Z,6.5
2018-02-23T10:34:41.469Z,6.4
2018-02-23T10:35:42.206Z,6.8
2018-02-23T10:36:44.110Z,6.7
2018-02-23T10:37:46.210Z,7.1
2018-02-23T10:38:48.216Z,6.3
2018-02-23T10:39:50.208Z,5.7
2018-02-23T10:40:51.253Z,5.9
2018-02-23T10:41:51.945Z,6.8
2018-02-23T10:42:52.684Z,6.7
2018-02-23T10:43:53.422Z,6.4
2018-02-23T10:44:54.208Z,6.7
2018-02-23T10:45:54.935Z,6.7
2018-02-23T10:46:55.750Z,6.2
2018-02-23T10:47:56.508Z,6.1
2018-02-23T10:48:57.239Z,6.8
2018-02-23T10:49:58.055Z,6.8
2018-02-23T10:50:58.826Z,7.1
2018-02-23T10:51:59.534Z,6.2
2018-02-23T10:53:00.302Z,6.9
2018-02-23T10:54:01.100Z,6.3
2018-02-23T10:55:01.825Z,6.4
2018-02-23T10:56:02.566Z,6.3
2018-02-23T10:57:03.289Z,6.2
2018-02-23T10:58:04.068Z,6.4
2018-02-23T10:59:04.820Z,6.4
2018-02-23T11:00:05.630Z,6.4
2018-02-23T11:01:06.482Z,6.2
2018-02-23T11:02:07.211Z,6.0
2018-02-23T11:03:08.051Z,6.6
2018-02-23T11:04:08.827Z,6.5
2018-02-23T11:05:09.542Z,6.0
2018-02-23T11:06:10.272Z,5.5
2018-02-23T11:07:11.011Z,5.0
2018-02-23T11:08:11.787Z,6.0
2018-02-23T11:09:12.501Z,5.2
2018-02-23T11:10:13.243Z,5.4
2018-02-23T11:11:13.957Z,5.5
2018-02-23T11:12:14.687Z,6.0
2018-02-23T11:13:15.464Z,6.3
2018-02-23T11:14:16.228Z,5.9
2018-02-23T11:15:16.949Z,6.1
2018-02-23T11:16:17.679Z,6.3
2018-02-23T11:17:18.428Z,6.3
2018-02-23T11:18:19.220Z,6.5
2018-02-23T11:19:19.948Z,6.1
2018-02-23T11:20:20.671Z,6.3
2018-02-23T11:21:21.459Z,6.3
2018-02-23T11:22:22.177Z,6.0
2018-02-23T11:23:22.906Z,6.6
2018-02-23T11:24:23.629Z,6.6
2018-02-23T11:25:24.359Z,6.9
2018-02-23T11:26:25.089Z,5.6
2018-02-23T11:27:25.807Z,6.3
2018-02-23T11:28:26.530Z,6.0
2018-02-23T11:29:27.251Z,6.5
2018-02-23T11:30:28.068Z,6.2
2018-02-23T11:31:28.784Z,6.0
2018-02-23T11:32:29.526Z,5.9
2018-02-23T11:33:30.277Z,6.2
2018-02-23T11:34:31.048Z,6.3
2018-02-23T11:35:31.825Z,6.6
2018-02-23T11:36:32.578Z,6.2
2018-02-23T11:37:33.289Z,6.2
2018-02-23T11:38:34.016Z,6.6
2018-02-23T11:39:34.755Z,6.6
2018-02-23T11:40:35.475Z,7.0
2018-02-23T11:41:36.246Z,7.0
2018-02-23T11:42:36.980Z,6.7
2018-02-23T11:43:37.698Z,6.4
2018-02-23T11:44:38.403Z,7.1
2018-02-23T11:45:39.135Z,6.6
2018-02-23T11:46:39.925Z,6.7
2018-02-23T11:47:40.708Z,6.5
2018-02-23T11:48:41.495Z,6.7
2018-02-23T11:49:42.236Z,6.1
2018-02-23T11:50:43.019Z,6.3
2018-02-23T11:51:43.800Z,5.9
2018-02-23T11:52:44.606Z,6.1
2018-02-23T11:53:45.334Z,6.5
2018-02-23T11:54:46.067Z,6.8
2018-02-23T11:55:46.837Z,7.4
2018-02-23T11:56:47.688Z,6.9
2018-02-23T11:57:48.417Z,6.2
2018-02-23T11:58:49.141Z,6.7
2018-02-23T11:59:49.940Z,7.2
2018-02-23T12:00:50.736Z,6.6
2018-02-23T12:01:51.541Z,6.4
2018-02-23T12:02:52.265Z,6.9
2018-02-23T12:03:52.997Z,6.5
2018-02-23T12:04:53.725Z,7.1
2018-02-23T12:05:54.465Z,6.6
2018-02-23T12:06:55.304Z,7.0
2018-02-23T12:07:56.025Z,7.1
2018-02-23T12:08:56.758Z,6.6
2018-02-23T12:09:57.496Z,7.2
2018-02-23T12:10:58.229Z,6.9
2018-02-23T12:11:59.021Z,6.2
2018-02-23T12:12:59.825Z,6.5
2018-02-23T12:14:00.569Z,6.2
2018-02-23T12:15:01.349Z,6.1
2018-02-23T12:16:02.065Z,6.0
2018-02-23T12:17:02.816Z,6.2
2018-02-23T12:18:03.539Z,6.0
2018-02-23T12:19:04.257Z,6.8
2018-02-23T12:20:04.994Z,6.0
2018-02-23T12:21:05.739Z,5.8
2018-02-23T12:22:06.468Z,6.5
2018-02-23T12:23:07.195Z,6.0
2018-02-23T12:24:07.980Z,6.1
2018-02-23T12:25:08.758Z,5.8
2018-02-23T12:26:09.556Z,6.8
2018-02-23T12:27:10.290Z,6.0
2018-02-23T12:28:11.017Z,6.2
2018-02-23T12:29:11.797Z,6.9
2018-02-23T12:30:12.527Z,6.3
2018-02-23T12:31:13.269Z,6.4
2018-02-23T12:32:13.990Z,6.1
2018-02-23T12:33:14.734Z,6.1
2018-02-23T12:34:15.529Z,6.2
2018-02-23T12:35:16.247Z,5.6
2018-02-23T12:36:17.027Z,6.5
2018-02-23T12:37:17.809Z,6.2
2018-02-23T12:38:18.538Z,6.3
2018-02-23T12:39:19.255Z,6.7
2018-02-23T12:40:19.987Z,6.4
2018-02-23T12:41:20.883Z,6.3
2018-02-23T12:42:21.628Z,5.9
2018-02-23T12:43:22.428Z,5.8
2018-02-23T12:44:24.285Z,5.6
2018-02-23T12:45:25.122Z,5.9
2018-02-23T12:46:26.457Z,6.6
2018-02-23T12:47:27.398Z,6.0
2018-02-23T12:48:29.103Z,6.4
2018-02-23T12:49:30.165Z,6.3
2018-02-23T12:50:30.885Z,6.2
2018-02-23T12:51:31.592Z,6.3
2018-02-23T12:52:32.356Z,6.4
2018-02-23T12:53:33.087Z,6.3
2018-02-23T12:54:33.817Z,6.2
2018-02-23T12:55:34.596Z,5.9
2018-02-23T12:56:35.407Z,6.8
2018-02-23T12:57:36.125Z,6.1
2018-02-23T12:58:36.854Z,6.8
2018-02-23T12:59:37.576Z,6.7
2018-02-23T13:00:38.365Z,6.4
2018-02-23T13:01:39.151Z,6.0
2018-02-23T13:02:39.878Z,6.7
2018-02-23T13:03:40.607Z,6.5
2018-02-23T13:04:41.453Z,5.6
2018-02-23T13:05:42.274Z,5.9
2018-02-23T13:06:43.044Z,5.8
2018-02-23T13:07:43.788Z,6.1
2018-02-23T13:08:44.613Z,6.3
2018-02-23T13:09:45.330Z,5.9
2018-02-23T13:10:46.055Z,6.5
2018-02-23T13:11:46.818Z,6.3
2018-02-23T13:12:47.551Z,6.0
2018-02-23T13:13:48.275Z,6.1
2018-02-23T13:14:48.996Z,6.3
2018-02-23T13:15:49.785Z,6.7
2018-02-23T13:16:50.520Z,7.1
2018-02-23T13:17:51.247Z,7.0
2018-02-23T13:18:51.984Z,7.2
2018-02-23T13:19:52.715Z,7.4
2018-02-23T13:20:53.472Z,6.8
2018-02-23T13:21:54.218Z,7.0
2018-02-23T13:22:54.955Z,7.4
2018-02-23T13:23:56.282Z,7.4
2018-02-23T13:24:57.158Z,7.7
2018-02-23T13:25:58.051Z,6.8
2018-02-23T13:26:58.856Z,7.0
2018-02-23T13:27:59.635Z,6.9
2018-02-23T13:29:00.418Z,7.4
2018-02-23T13:30:01.147Z,7.5
2018-02-23T13:31:01.878Z,6.7
2018-02-23T13:32:02.605Z,6.7
2018-02-23T13:33:03.398Z,7.2
2018-02-23T13:34:04.174Z,8.1
2018-02-23T13:35:04.913Z,7.0
2018-02-23T13:36:05.649Z,7.8
2018-02-23T13:37:06.397Z,8.0
2018-02-23T13:38:07.246Z,7.3
2018-02-23T13:39:07.975Z,7.9
2018-02-23T13:40:08.700Z,8.8